sensor_id;sensor_type;location;lat;lon;timestamp;temperature;humidity
10123;DHT22;5101;49.038;8.710;2023-05-18T00:02:13;9.50;97.00
10123;DHT22;5101;49.038;8.710;2023-05-18T00:04:40;9.50;97.10
10123;DHT22;5101;49.038;8.710;2023-05-18T00:07:06;9.40;97.00
10123;DHT22;5101;49.038;8.710;2023-05-18T00:09:34;9.40;97.00
10123;DHT22;5101;49.038;8.710;2023-05-18T00:12:00;9.40;97.00
10123;DHT22;5101;49.038;8.710;2023-05-18T00:14:27;9.30;97.00
10123;DHT22;5101;49.038;8.710;2023-05-18T00:16:53;9.30;96.90
10123;DHT22;5101;49.038;8.710;2023-05-18T00:19:22;9.20;96.90
10123;DHT22;5101;49.038;8.710;2023-05-18T00:21:49;9.20;96.90
10123;DHT22;5101;49.038;8.710;2023-05-18T00:24:16;9.20;96.90
10123;DHT22;5101;49.038;8.710;2023-05-18T00:26:42;9.10;96.90
10123;DHT22;5101;49.038;8.710;2023-05-18T00:29:08;9.10;97.20
10123;DHT22;5101;49.038;8.710;2023-05-18T00:31:35;9.10;97.00
10123;DHT22;5101;49.038;8.710;2023-05-18T00:34:05;9.00;97.00
10123;DHT22;5101;49.038;8.710;2023-05-18T00:36:31;9.00;97.10
10123;DHT22;5101;49.038;8.710;2023-05-18T00:38:57;8.90;97.10
10123;DHT22;5101;49.038;8.710;2023-05-18T00:41:24;8.90;97.20
10123;DHT22;5101;49.038;8.710;2023-05-18T00:43:51;8.90;97.30
10123;DHT22;5101;49.038;8.710;2023-05-18T00:46:16;8.80;97.40
10123;DHT22;5101;49.038;8.710;2023-05-18T00:48:42;8.80;97.50
10123;DHT22;5101;49.038;8.710;2023-05-18T00:51:08;8.80;97.60
10123;DHT22;5101;49.038;8.710;2023-05-18T00:53:34;8.80;97.60
10123;DHT22;5101;49.038;8.710;2023-05-18T00:56:01;8.80;97.60
10123;DHT22;5101;49.038;8.710;2023-05-18T00:58:26;8.60;97.80
10123;DHT22;5101;49.038;8.710;2023-05-18T01:00:52;8.60;97.90
10123;DHT22;5101;49.038;8.710;2023-05-18T01:03:18;8.60;97.90
10123;DHT22;5101;49.038;8.710;2023-05-18T01:05:45;8.60;97.90
10123;DHT22;5101;49.038;8.710;2023-05-18T01:08:15;8.50;97.90
10123;DHT22;5101;49.038;8.710;2023-05-18T01:10:42;8.50;97.90
10123;DHT22;5101;49.038;8.710;2023-05-18T01:13:42;8.50;98.00
10123;DHT22;5101;49.038;8.710;2023-05-18T01:16:17;8.40;98.00
10123;DHT22;5101;49.038;8.710;2023-05-18T01:18:52;8.40;98.00
10123;DHT22;5101;49.038;8.710;2023-05-18T01:21:49;8.40;98.10
10123;DHT22;5101;49.038;8.710;2023-05-18T01:24:33;8.40;98.20
10123;DHT22;5101;49.038;8.710;2023-05-18T01:27:00;8.30;98.30
10123;DHT22;5101;49.038;8.710;2023-05-18T01:29:28;8.30;98.40
10123;DHT22;5101;49.038;8.710;2023-05-18T01:31:55;8.30;98.50
10123;DHT22;5101;49.038;8.710;2023-05-18T01:34:21;8.30;98.60
10123;DHT22;5101;49.038;8.710;2023-05-18T01:36:46;8.30;98.60
10123;DHT22;5101;49.038;8.710;2023-05-18T01:39:12;8.30;98.70
10123;DHT22;5101;49.038;8.710;2023-05-18T01:41:44;8.20;98.70
10123;DHT22;5101;49.038;8.710;2023-05-18T01:44:23;8.20;98.70
10123;DHT22;5101;49.038;8.710;2023-05-18T01:47:09;8.20;98.70
10123;DHT22;5101;49.038;8.710;2023-05-18T01:52:36;8.10;98.80
10123;DHT22;5101;49.038;8.710;2023-05-18T01:55:04;8.10;98.90
10123;DHT22;5101;49.038;8.710;2023-05-18T01:57:32;8.00;99.20
10123;DHT22;5101;49.038;8.710;2023-05-18T01:59:59;8.00;99.30
10123;DHT22;5101;49.038;8.710;2023-05-18T02:02:26;8.00;99.40
10123;DHT22;5101;49.038;8.710;2023-05-18T02:04:51;8.20;99.60
10123;DHT22;5101;49.038;8.710;2023-05-18T02:07:17;8.00;99.50
10123;DHT22;5101;49.038;8.710;2023-05-18T02:09:43;8.00;99.50
10123;DHT22;5101;49.038;8.710;2023-05-18T02:12:09;8.00;99.50
10123;DHT22;5101;49.038;8.710;2023-05-18T02:14:34;8.00;99.50
10123;DHT22;5101;49.038;8.710;2023-05-18T02:17:00;8.00;99.50
10123;DHT22;5101;49.038;8.710;2023-05-18T02:19:26;8.00;99.60
10123;DHT22;5101;49.038;8.710;2023-05-18T02:21:51;7.90;99.60
10123;DHT22;5101;49.038;8.710;2023-05-18T02:24:17;7.90;99.60
10123;DHT22;5101;49.038;8.710;2023-05-18T02:26:43;7.90;99.60
10123;DHT22;5101;49.038;8.710;2023-05-18T02:29:08;7.90;99.70
10123;DHT22;5101;49.038;8.710;2023-05-18T02:31:36;7.90;99.70
10123;DHT22;5101;49.038;8.710;2023-05-18T02:34:02;7.90;99.80
10123;DHT22;5101;49.038;8.710;2023-05-18T02:36:28;7.90;99.80
10123;DHT22;5101;49.038;8.710;2023-05-18T02:39:01;7.90;99.90
10123;DHT22;5101;49.038;8.710;2023-05-18T02:41:27;7.90;99.90
10123;DHT22;5101;49.038;8.710;2023-05-18T02:43:53;7.90;99.90
10123;DHT22;5101;49.038;8.710;2023-05-18T02:46:18;7.90;99.90
10123;DHT22;5101;49.038;8.710;2023-05-18T02:48:44;7.90;99.90
10123;DHT22;5101;49.038;8.710;2023-05-18T02:51:10;7.90;99.90
10123;DHT22;5101;49.038;8.710;2023-05-18T02:53:35;7.90;99.90
10123;DHT22;5101;49.038;8.710;2023-05-18T02:56:01;7.90;99.90
10123;DHT22;5101;49.038;8.710;2023-05-18T02:58:28;8.10;99.90
10123;DHT22;5101;49.038;8.710;2023-05-18T03:00:53;7.90;99.90
10123;DHT22;5101;49.038;8.710;2023-05-18T03:03:24;7.90;99.90
10123;DHT22;5101;49.038;8.710;2023-05-18T03:05:50;7.90;99.90
10123;DHT22;5101;49.038;8.710;2023-05-18T03:08:21;7.90;99.90
10123;DHT22;5101;49.038;8.710;2023-05-18T03:10:51;7.90;99.90
10123;DHT22;5101;49.038;8.710;2023-05-18T03:13:16;7.90;99.90
10123;DHT22;5101;49.038;8.710;2023-05-18T03:15:42;7.90;99.90
10123;DHT22;5101;49.038;8.710;2023-05-18T03:18:10;8.00;99.90
10123;DHT22;5101;49.038;8.710;2023-05-18T03:20:35;7.90;99.90
10123;DHT22;5101;49.038;8.710;2023-05-18T03:23:02;8.00;99.90
10123;DHT22;5101;49.038;8.710;2023-05-18T03:25:28;8.00;99.90
10123;DHT22;5101;49.038;8.710;2023-05-18T03:27:54;8.10;99.90
10123;DHT22;5101;49.038;8.710;2023-05-18T03:30:20;8.10;99.90
10123;DHT22;5101;49.038;8.710;2023-05-18T03:32:46;8.40;99.90
10123;DHT22;5101;49.038;8.710;2023-05-18T03:35:12;8.10;99.90
10123;DHT22;5101;49.038;8.710;2023-05-18T03:37:38;8.20;99.90
10123;DHT22;5101;49.038;8.710;2023-05-18T03:40:12;8.20;99.90
10123;DHT22;5101;49.038;8.710;2023-05-18T03:42:38;8.20;99.90
10123;DHT22;5101;49.038;8.710;2023-05-18T03:45:04;8.20;99.90
10123;DHT22;5101;49.038;8.710;2023-05-18T03:47:30;8.20;99.90
10123;DHT22;5101;49.038;8.710;2023-05-18T03:49:56;8.30;99.90
10123;DHT22;5101;49.038;8.710;2023-05-18T03:52:21;8.30;99.90
10123;DHT22;5101;49.038;8.710;2023-05-18T03:54:48;8.30;99.90
10123;DHT22;5101;49.038;8.710;2023-05-18T03:57:15;8.40;99.90
10123;DHT22;5101;49.038;8.710;2023-05-18T03:59:41;8.40;99.90
10123;DHT22;5101;49.038;8.710;2023-05-18T04:02:06;8.40;99.90
10123;DHT22;5101;49.038;8.710;2023-05-18T04:04:32;8.50;99.90
10123;DHT22;5101;49.038;8.710;2023-05-18T04:06:58;8.50;99.90
10123;DHT22;5101;49.038;8.710;2023-05-18T04:09:27;8.50;99.90
10123;DHT22;5101;49.038;8.710;2023-05-18T04:11:52;8.50;99.90
10123;DHT22;5101;49.038;8.710;2023-05-18T04:14:18;8.60;99.90
10123;DHT22;5101;49.038;8.710;2023-05-18T04:16:45;8.60;99.90
10123;DHT22;5101;49.038;8.710;2023-05-18T04:19:11;8.60;99.90
10123;DHT22;5101;49.038;8.710;2023-05-18T04:21:38;8.70;99.90
10123;DHT22;5101;49.038;8.710;2023-05-18T04:24:04;8.70;99.90
10123;DHT22;5101;49.038;8.710;2023-05-18T04:26:32;8.80;99.90
10123;DHT22;5101;49.038;8.710;2023-05-18T04:29:01;8.80;99.90
10123;DHT22;5101;49.038;8.710;2023-05-18T04:31:26;8.90;99.90
10123;DHT22;5101;49.038;8.710;2023-05-18T04:33:54;9.00;99.90
10123;DHT22;5101;49.038;8.710;2023-05-18T04:36:19;9.00;99.90
10123;DHT22;5101;49.038;8.710;2023-05-18T04:38:45;9.00;99.90
10123;DHT22;5101;49.038;8.710;2023-05-18T04:41:11;9.00;99.90
10123;DHT22;5101;49.038;8.710;2023-05-18T04:43:36;9.00;99.90
10123;DHT22;5101;49.038;8.710;2023-05-18T04:46:02;8.90;99.90
10123;DHT22;5101;49.038;8.710;2023-05-18T04:48:29;9.00;99.90
10123;DHT22;5101;49.038;8.710;2023-05-18T04:50:55;9.00;99.90
10123;DHT22;5101;49.038;8.710;2023-05-18T04:53:21;9.00;99.90
10123;DHT22;5101;49.038;8.710;2023-05-18T04:55:50;8.90;99.90
10123;DHT22;5101;49.038;8.710;2023-05-18T04:58:16;8.90;99.90
10123;DHT22;5101;49.038;8.710;2023-05-18T05:00:43;8.90;99.90
10123;DHT22;5101;49.038;8.710;2023-05-18T05:03:09;8.90;99.70
10123;DHT22;5101;49.038;8.710;2023-05-18T05:05:34;8.80;99.30
10123;DHT22;5101;49.038;8.710;2023-05-18T05:08:00;8.80;98.80
10123;DHT22;5101;49.038;8.710;2023-05-18T05:10:26;8.90;98.60
10123;DHT22;5101;49.038;8.710;2023-05-18T05:12:52;8.90;98.40
10123;DHT22;5101;49.038;8.710;2023-05-18T05:15:18;8.90;98.20
10123;DHT22;5101;49.038;8.710;2023-05-18T05:17:47;8.90;97.90
10123;DHT22;5101;49.038;8.710;2023-05-18T05:20:13;9.00;97.70
10123;DHT22;5101;49.038;8.710;2023-05-18T05:22:39;9.00;97.40
10123;DHT22;5101;49.038;8.710;2023-05-18T05:25:04;9.00;97.00
10123;DHT22;5101;49.038;8.710;2023-05-18T05:27:30;9.00;96.90
10123;DHT22;5101;49.038;8.710;2023-05-18T05:29:56;9.00;96.50
10123;DHT22;5101;49.038;8.710;2023-05-18T05:32:21;9.00;96.20
10123;DHT22;5101;49.038;8.710;2023-05-18T05:34:47;9.20;96.10
10123;DHT22;5101;49.038;8.710;2023-05-18T05:37:14;9.20;95.70
10123;DHT22;5101;49.038;8.710;2023-05-18T05:39:40;9.20;95.50
10123;DHT22;5101;49.038;8.710;2023-05-18T05:42:06;9.30;95.40
10123;DHT22;5101;49.038;8.710;2023-05-18T05:44:32;9.50;95.50
10123;DHT22;5101;49.038;8.710;2023-05-18T05:46:58;9.50;95.50
10123;DHT22;5101;49.038;8.710;2023-05-18T05:49:24;9.50;95.50
10123;DHT22;5101;49.038;8.710;2023-05-18T05:51:49;9.70;95.30
10123;DHT22;5101;49.038;8.710;2023-05-18T05:54:15;9.80;95.30
10123;DHT22;5101;49.038;8.710;2023-05-18T05:56:40;9.90;95.30
10123;DHT22;5101;49.038;8.710;2023-05-18T05:59:06;9.90;95.20
10123;DHT22;5101;49.038;8.710;2023-05-18T06:01:31;10.00;94.60
10123;DHT22;5101;49.038;8.710;2023-05-18T06:03:59;10.10;94.50
10123;DHT22;5101;49.038;8.710;2023-05-18T06:06:24;10.20;94.50
10123;DHT22;5101;49.038;8.710;2023-05-18T06:08:50;10.40;94.50
10123;DHT22;5101;49.038;8.710;2023-05-18T06:11:15;10.40;94.30
10123;DHT22;5101;49.038;8.710;2023-05-18T06:13:41;10.60;94.10
10123;DHT22;5101;49.038;8.710;2023-05-18T06:16:06;10.70;93.90
10123;DHT22;5101;49.038;8.710;2023-05-18T06:18:32;10.80;93.30
10123;DHT22;5101;49.038;8.710;2023-05-18T06:20:59;10.90;93.20
10123;DHT22;5101;49.038;8.710;2023-05-18T06:23:24;11.20;93.00
10123;DHT22;5101;49.038;8.710;2023-05-18T06:25:50;11.40;92.60
10123;DHT22;5101;49.038;8.710;2023-05-18T06:28:16;11.60;92.00
10123;DHT22;5101;49.038;8.710;2023-05-18T06:30:42;11.80;91.00
10123;DHT22;5101;49.038;8.710;2023-05-18T06:33:08;11.90;90.10
10123;DHT22;5101;49.038;8.710;2023-05-18T06:35:33;12.20;89.10
10123;DHT22;5101;49.038;8.710;2023-05-18T06:37:59;12.50;88.50
10123;DHT22;5101;49.038;8.710;2023-05-18T06:40:24;12.90;87.90
10123;DHT22;5101;49.038;8.710;2023-05-18T06:42:50;13.30;87.50
10123;DHT22;5101;49.038;8.710;2023-05-18T06:45:16;13.70;86.40
10123;DHT22;5101;49.038;8.710;2023-05-18T06:47:42;13.90;83.30
10123;DHT22;5101;49.038;8.710;2023-05-18T06:50:08;14.30;83.20
10123;DHT22;5101;49.038;8.710;2023-05-18T06:52:33;14.60;82.30
10123;DHT22;5101;49.038;8.710;2023-05-18T06:54:59;14.90;81.00
10123;DHT22;5101;49.038;8.710;2023-05-18T06:57:26;15.20;79.80
10123;DHT22;5101;49.038;8.710;2023-05-18T06:59:51;15.40;77.80
10123;DHT22;5101;49.038;8.710;2023-05-18T07:02:19;15.70;77.00
10123;DHT22;5101;49.038;8.710;2023-05-18T07:04:45;15.80;74.90
10123;DHT22;5101;49.038;8.710;2023-05-18T07:07:11;15.90;73.80
10123;DHT22;5101;49.038;8.710;2023-05-18T07:09:37;16.10;73.30
10123;DHT22;5101;49.038;8.710;2023-05-18T07:12:02;16.10;70.50
10123;DHT22;5101;49.038;8.710;2023-05-18T07:14:28;16.00;70.20
10123;DHT22;5101;49.038;8.710;2023-05-18T07:16:53;16.30;70.10
10123;DHT22;5101;49.038;8.710;2023-05-18T07:19:19;16.70;69.00
10123;DHT22;5101;49.038;8.710;2023-05-18T07:21:45;16.50;68.20
10123;DHT22;5101;49.038;8.710;2023-05-18T07:24:10;16.40;67.60
10123;DHT22;5101;49.038;8.710;2023-05-18T07:26:36;16.70;67.50
10123;DHT22;5101;49.038;8.710;2023-05-18T07:29:01;16.90;66.70
10123;DHT22;5101;49.038;8.710;2023-05-18T07:31:27;17.30;66.00
10123;DHT22;5101;49.038;8.710;2023-05-18T07:33:53;17.40;64.40
10123;DHT22;5101;49.038;8.710;2023-05-18T07:36:18;17.30;63.30
10123;DHT22;5101;49.038;8.710;2023-05-18T07:38:44;17.30;62.80
10123;DHT22;5101;49.038;8.710;2023-05-18T07:41:09;17.50;63.00
10123;DHT22;5101;49.038;8.710;2023-05-18T07:43:35;18.10;63.30
10123;DHT22;5101;49.038;8.710;2023-05-18T07:46:00;18.40;62.50
10123;DHT22;5101;49.038;8.710;2023-05-18T07:48:26;18.60;61.60
10123;DHT22;5101;49.038;8.710;2023-05-18T07:50:52;19.00;61.10
10123;DHT22;5101;49.038;8.710;2023-05-18T07:53:18;19.40;60.30
10123;DHT22;5101;49.038;8.710;2023-05-18T07:55:43;19.40;59.50
10123;DHT22;5101;49.038;8.710;2023-05-18T07:58:09;19.60;57.50
10123;DHT22;5101;49.038;8.710;2023-05-18T08:00:35;19.30;56.20
10123;DHT22;5101;49.038;8.710;2023-05-18T08:03:01;18.90;53.50
10123;DHT22;5101;49.038;8.710;2023-05-18T08:05:27;18.80;54.10
10123;DHT22;5101;49.038;8.710;2023-05-18T08:07:52;18.40;53.90
10123;DHT22;5101;49.038;8.710;2023-05-18T08:10:18;18.60;54.20
10123;DHT22;5101;49.038;8.710;2023-05-18T08:12:43;18.80;53.90
10123;DHT22;5101;49.038;8.710;2023-05-18T08:15:11;19.30;53.80
10123;DHT22;5101;49.038;8.710;2023-05-18T08:17:36;19.70;53.40
10123;DHT22;5101;49.038;8.710;2023-05-18T08:20:02;19.90;52.70
10123;DHT22;5101;49.038;8.710;2023-05-18T08:22:29;20.40;52.20
10123;DHT22;5101;49.038;8.710;2023-05-18T08:24:55;20.70;51.40
10123;DHT22;5101;49.038;8.710;2023-05-18T08:27:21;20.60;50.20
10123;DHT22;5101;49.038;8.710;2023-05-18T08:29:46;20.40;49.80
10123;DHT22;5101;49.038;8.710;2023-05-18T08:32:12;20.40;49.40
10123;DHT22;5101;49.038;8.710;2023-05-18T08:34:37;20.90;49.30
10123;DHT22;5101;49.038;8.710;2023-05-18T08:37:03;21.30;48.50
10123;DHT22;5101;49.038;8.710;2023-05-18T08:39:28;21.50;47.80
10123;DHT22;5101;49.038;8.710;2023-05-18T08:42:01;21.40;46.60
10123;DHT22;5101;49.038;8.710;2023-05-18T08:44:39;21.60;46.30
10123;DHT22;5101;49.038;8.710;2023-05-18T08:47:09;21.80;45.80
10123;DHT22;5101;49.038;8.710;2023-05-18T08:49:36;22.10;45.20
10123;DHT22;5101;49.038;8.710;2023-05-18T08:52:03;22.20;44.60
10123;DHT22;5101;49.038;8.710;2023-05-18T08:54:30;22.30;43.70
10123;DHT22;5101;49.038;8.710;2023-05-18T08:56:56;22.50;43.00
10123;DHT22;5101;49.038;8.710;2023-05-18T08:59:25;22.60;41.40
10123;DHT22;5101;49.038;8.710;2023-05-18T09:01:51;22.50;41.40
10123;DHT22;5101;49.038;8.710;2023-05-18T09:04:19;22.40;42.30
10123;DHT22;5101;49.038;8.710;2023-05-18T09:06:47;22.80;41.60
10123;DHT22;5101;49.038;8.710;2023-05-18T09:09:13;22.40;41.10
10123;DHT22;5101;49.038;8.710;2023-05-18T09:11:40;22.30;41.00
10123;DHT22;5101;49.038;8.710;2023-05-18T09:14:06;22.30;40.70
10123;DHT22;5101;49.038;8.710;2023-05-18T09:16:31;22.30;40.90
10123;DHT22;5101;49.038;8.710;2023-05-18T09:18:58;22.10;39.60
10123;DHT22;5101;49.038;8.710;2023-05-18T09:21:23;21.80;40.10
10123;DHT22;5101;49.038;8.710;2023-05-18T09:23:49;22.10;40.20
10123;DHT22;5101;49.038;8.710;2023-05-18T09:26:15;22.20;40.00
10123;DHT22;5101;49.038;8.710;2023-05-18T09:28:41;22.10;39.30
10123;DHT22;5101;49.038;8.710;2023-05-18T09:31:09;22.40;39.60
10123;DHT22;5101;49.038;8.710;2023-05-18T09:33:37;22.80;39.40
10123;DHT22;5101;49.038;8.710;2023-05-18T09:36:04;23.20;39.30
10123;DHT22;5101;49.038;8.710;2023-05-18T09:38:35;23.20;38.90
10123;DHT22;5101;49.038;8.710;2023-05-18T09:41:01;23.20;38.80
10123;DHT22;5101;49.038;8.710;2023-05-18T09:43:27;23.00;38.20
10123;DHT22;5101;49.038;8.710;2023-05-18T09:45:53;22.50;37.70
10123;DHT22;5101;49.038;8.710;2023-05-18T09:48:18;22.70;38.10
10123;DHT22;5101;49.038;8.710;2023-05-18T09:50:44;23.00;38.30
10123;DHT22;5101;49.038;8.710;2023-05-18T09:53:11;23.50;38.80
10123;DHT22;5101;49.038;8.710;2023-05-18T09:55:44;23.40;37.10
10123;DHT22;5101;49.038;8.710;2023-05-18T09:58:10;23.30;37.50
10123;DHT22;5101;49.038;8.710;2023-05-18T10:00:46;23.10;37.30
10123;DHT22;5101;49.038;8.710;2023-05-18T10:03:20;22.70;36.90
10123;DHT22;5101;49.038;8.710;2023-05-18T10:05:46;22.50;37.00
10123;DHT22;5101;49.038;8.710;2023-05-18T10:08:13;22.10;37.30
10123;DHT22;5101;49.038;8.710;2023-05-18T10:10:42;22.10;37.30
10123;DHT22;5101;49.038;8.710;2023-05-18T10:13:12;22.30;37.40
10123;DHT22;5101;49.038;8.710;2023-05-18T10:15:45;22.60;37.40
10123;DHT22;5101;49.038;8.710;2023-05-18T10:18:11;22.30;36.50
10123;DHT22;5101;49.038;8.710;2023-05-18T10:20:38;22.30;37.00
10123;DHT22;5101;49.038;8.710;2023-05-18T10:23:04;22.50;37.50
10123;DHT22;5101;49.038;8.710;2023-05-18T10:25:31;22.40;36.60
10123;DHT22;5101;49.038;8.710;2023-05-18T10:28:00;22.20;36.40
10123;DHT22;5101;49.038;8.710;2023-05-18T10:30:28;21.90;36.20
10123;DHT22;5101;49.038;8.710;2023-05-18T10:32:56;22.00;36.80
10123;DHT22;5101;49.038;8.710;2023-05-18T10:35:22;22.10;37.10
10123;DHT22;5101;49.038;8.710;2023-05-18T10:37:49;22.10;37.00
10123;DHT22;5101;49.038;8.710;2023-05-18T10:40:18;22.20;36.80
10123;DHT22;5101;49.038;8.710;2023-05-18T10:42:44;21.90;36.30
10123;DHT22;5101;49.038;8.710;2023-05-18T10:45:10;21.60;36.50
10123;DHT22;5101;49.038;8.710;2023-05-18T10:47:38;21.60;36.80
10123;DHT22;5101;49.038;8.710;2023-05-18T10:50:07;21.60;36.90
10123;DHT22;5101;49.038;8.710;2023-05-18T10:52:36;21.30;37.00
10123;DHT22;5101;49.038;8.710;2023-05-18T10:55:01;21.40;37.00
10123;DHT22;5101;49.038;8.710;2023-05-18T10:57:33;21.10;37.20
10123;DHT22;5101;49.038;8.710;2023-05-18T10:59:59;21.00;37.50
10123;DHT22;5101;49.038;8.710;2023-05-18T11:02:25;20.90;38.00
10123;DHT22;5101;49.038;8.710;2023-05-18T11:04:52;21.10;38.30
10123;DHT22;5101;49.038;8.710;2023-05-18T11:07:19;21.30;38.50
10123;DHT22;5101;49.038;8.710;2023-05-18T11:09:47;21.30;38.30
10123;DHT22;5101;49.038;8.710;2023-05-18T11:12:15;21.40;38.30
10123;DHT22;5101;49.038;8.710;2023-05-18T11:14:53;21.30;37.70
10123;DHT22;5101;49.038;8.710;2023-05-18T11:17:20;21.20;37.60
10123;DHT22;5101;49.038;8.710;2023-05-18T11:25:08;20.80;37.70
10123;DHT22;5101;49.038;8.710;2023-05-18T11:27:34;20.90;37.90
10123;DHT22;5101;49.038;8.710;2023-05-18T11:29:59;21.10;37.60
10123;DHT22;5101;49.038;8.710;2023-05-18T11:32:27;21.20;37.40
10123;DHT22;5101;49.038;8.710;2023-05-18T11:34:55;21.00;37.00
10123;DHT22;5101;49.038;8.710;2023-05-18T11:40:09;21.10;36.80
10123;DHT22;5101;49.038;8.710;2023-05-18T11:42:35;21.20;36.90
10123;DHT22;5101;49.038;8.710;2023-05-18T11:45:08;21.30;36.90
10123;DHT22;5101;49.038;8.710;2023-05-18T11:47:34;21.20;36.30
10123;DHT22;5101;49.038;8.710;2023-05-18T11:50:08;21.20;36.30
10123;DHT22;5101;49.038;8.710;2023-05-18T11:52:45;21.10;35.90
10123;DHT22;5101;49.038;8.710;2023-05-18T11:55:15;21.00;35.90
10123;DHT22;5101;49.038;8.710;2023-05-18T11:57:43;20.90;36.20
10123;DHT22;5101;49.038;8.710;2023-05-18T12:00:12;20.90;36.40
10123;DHT22;5101;49.038;8.710;2023-05-18T12:02:42;21.00;36.40
10123;DHT22;5101;49.038;8.710;2023-05-18T12:05:08;21.10;36.30
10123;DHT22;5101;49.038;8.710;2023-05-18T12:07:35;21.30;36.20
10123;DHT22;5101;49.038;8.710;2023-05-18T12:10:06;21.30;35.90
10123;DHT22;5101;49.038;8.710;2023-05-18T12:12:33;21.50;36.20
10123;DHT22;5101;49.038;8.710;2023-05-18T12:15:00;21.40;36.00
10123;DHT22;5101;49.038;8.710;2023-05-18T12:20:08;21.40;35.60
10123;DHT22;5101;49.038;8.710;2023-05-18T12:22:35;21.30;35.60
10123;DHT22;5101;49.038;8.710;2023-05-18T12:25:01;21.40;35.70
10123;DHT22;5101;49.038;8.710;2023-05-18T12:27:27;21.40;35.70
10123;DHT22;5101;49.038;8.710;2023-05-18T12:29:53;21.40;35.20
10123;DHT22;5101;49.038;8.710;2023-05-18T12:32:19;21.30;35.20
10123;DHT22;5101;49.038;8.710;2023-05-18T12:34:44;21.40;35.20
10123;DHT22;5101;49.038;8.710;2023-05-18T12:37:10;21.20;35.00
10123;DHT22;5101;49.038;8.710;2023-05-18T12:39:36;20.90;34.60
10123;DHT22;5101;49.038;8.710;2023-05-18T12:42:13;20.80;34.80
10123;DHT22;5101;49.038;8.710;2023-05-18T12:44:40;20.80;35.10
10123;DHT22;5101;49.038;8.710;2023-05-18T12:47:09;20.80;35.10
10123;DHT22;5101;49.038;8.710;2023-05-18T12:49:36;21.00;35.40
10123;DHT22;5101;49.038;8.710;2023-05-18T12:52:14;21.10;35.40
10123;DHT22;5101;49.038;8.710;2023-05-18T12:54:54;21.20;35.60
10123;DHT22;5101;49.038;8.710;2023-05-18T12:57:23;21.10;34.90
10123;DHT22;5101;49.038;8.710;2023-05-18T12:59:52;21.10;34.80
10123;DHT22;5101;49.038;8.710;2023-05-18T13:02:33;21.00;34.20
10123;DHT22;5101;49.038;8.710;2023-05-18T13:05:07;20.90;34.50
10123;DHT22;5101;49.038;8.710;2023-05-18T13:07:38;20.90;34.50
10123;DHT22;5101;49.038;8.710;2023-05-18T13:10:06;20.90;34.70
10123;DHT22;5101;49.038;8.710;2023-05-18T13:12:45;21.00;34.60
10123;DHT22;5101;49.038;8.710;2023-05-18T13:15:19;20.80;34.20
10123;DHT22;5101;49.038;8.710;2023-05-18T13:18:05;20.90;34.50
10123;DHT22;5101;49.038;8.710;2023-05-18T13:20:34;21.00;34.80
10123;DHT22;5101;49.038;8.710;2023-05-18T13:23:08;20.80;34.50
10123;DHT22;5101;49.038;8.710;2023-05-18T13:25:34;20.60;34.40
10123;DHT22;5101;49.038;8.710;2023-05-18T13:28:01;20.60;34.60
10123;DHT22;5101;49.038;8.710;2023-05-18T13:30:26;20.60;35.00
10123;DHT22;5101;49.038;8.710;2023-05-18T13:32:52;20.70;35.20
10123;DHT22;5101;49.038;8.710;2023-05-18T13:35:18;20.80;35.20
10123;DHT22;5101;49.038;8.710;2023-05-18T13:37:45;20.90;35.00
10123;DHT22;5101;49.038;8.710;2023-05-18T13:40:13;21.00;34.90
10123;DHT22;5101;49.038;8.710;2023-05-18T13:42:39;21.00;34.60
10123;DHT22;5101;49.038;8.710;2023-05-18T13:45:05;20.90;34.30
10123;DHT22;5101;49.038;8.710;2023-05-18T13:47:30;21.00;34.60
10123;DHT22;5101;49.038;8.710;2023-05-18T13:49:56;20.90;34.30
10123;DHT22;5101;49.038;8.710;2023-05-18T13:52:21;20.90;34.40
10123;DHT22;5101;49.038;8.710;2023-05-18T13:54:47;20.90;34.50
10123;DHT22;5101;49.038;8.710;2023-05-18T13:57:13;20.80;34.50
10123;DHT22;5101;49.038;8.710;2023-05-18T13:59:39;20.80;34.40
10123;DHT22;5101;49.038;8.710;2023-05-18T14:02:04;20.70;34.10
10123;DHT22;5101;49.038;8.710;2023-05-18T14:04:30;20.40;34.20
10123;DHT22;5101;49.038;8.710;2023-05-18T14:06:55;20.30;34.30
10123;DHT22;5101;49.038;8.710;2023-05-18T14:09:23;20.30;34.50
10123;DHT22;5101;49.038;8.710;2023-05-18T14:11:48;20.30;35.20
10123;DHT22;5101;49.038;8.710;2023-05-18T14:14:14;20.30;34.60
10123;DHT22;5101;49.038;8.710;2023-05-18T14:16:40;20.40;34.90
10123;DHT22;5101;49.038;8.710;2023-05-18T14:19:05;20.40;35.00
10123;DHT22;5101;49.038;8.710;2023-05-18T14:21:31;20.20;34.80
10123;DHT22;5101;49.038;8.710;2023-05-18T14:23:56;20.10;34.70
10123;DHT22;5101;49.038;8.710;2023-05-18T14:26:22;20.00;34.70
10123;DHT22;5101;49.038;8.710;2023-05-18T14:28:47;20.10;34.90
10123;DHT22;5101;49.038;8.710;2023-05-18T14:31:13;20.10;35.00
10123;DHT22;5101;49.038;8.710;2023-05-18T14:33:38;20.00;35.00
10123;DHT22;5101;49.038;8.710;2023-05-18T14:36:04;19.90;35.00
10123;DHT22;5101;49.038;8.710;2023-05-18T14:38:30;20.00;35.30
10123;DHT22;5101;49.038;8.710;2023-05-18T14:40:55;19.90;34.90
10123;DHT22;5101;49.038;8.710;2023-05-18T14:43:21;19.70;34.60
10123;DHT22;5101;49.038;8.710;2023-05-18T14:45:46;19.70;35.50
10123;DHT22;5101;49.038;8.710;2023-05-18T14:48:12;19.80;34.80
10123;DHT22;5101;49.038;8.710;2023-05-18T14:50:37;19.90;34.90
10123;DHT22;5101;49.038;8.710;2023-05-18T14:53:02;20.00;35.20
10123;DHT22;5101;49.038;8.710;2023-05-18T14:55:28;19.90;35.10
10123;DHT22;5101;49.038;8.710;2023-05-18T14:57:54;19.90;35.20
10123;DHT22;5101;49.038;8.710;2023-05-18T15:00:19;20.00;35.40
10123;DHT22;5101;49.038;8.710;2023-05-18T15:02:45;20.10;35.60
10123;DHT22;5101;49.038;8.710;2023-05-18T15:05:10;20.20;35.60
10123;DHT22;5101;49.038;8.710;2023-05-18T15:07:36;20.10;35.00
10123;DHT22;5101;49.038;8.710;2023-05-18T15:10:02;19.90;34.80
10123;DHT22;5101;49.038;8.710;2023-05-18T15:12:28;19.90;34.80
10123;DHT22;5101;49.038;8.710;2023-05-18T15:14:53;19.80;34.80
10123;DHT22;5101;49.038;8.710;2023-05-18T15:17:19;19.90;34.90
10123;DHT22;5101;49.038;8.710;2023-05-18T15:19:44;19.90;34.80
10123;DHT22;5101;49.038;8.710;2023-05-18T15:22:12;19.80;34.80
10123;DHT22;5101;49.038;8.710;2023-05-18T15:24:38;19.80;34.80
10123;DHT22;5101;49.038;8.710;2023-05-18T15:27:03;19.80;34.90
10123;DHT22;5101;49.038;8.710;2023-05-18T15:29:29;19.70;34.50
10123;DHT22;5101;49.038;8.710;2023-05-18T15:31:54;19.70;34.40
10123;DHT22;5101;49.038;8.710;2023-05-18T15:34:20;19.70;34.40
10123;DHT22;5101;49.038;8.710;2023-05-18T15:36:46;19.70;34.50
10123;DHT22;5101;49.038;8.710;2023-05-18T15:39:12;19.80;34.60
10123;DHT22;5101;49.038;8.710;2023-05-18T15:41:37;19.70;34.40
10123;DHT22;5101;49.038;8.710;2023-05-18T15:44:03;19.70;34.40
10123;DHT22;5101;49.038;8.710;2023-05-18T15:46:30;19.70;34.20
10123;DHT22;5101;49.038;8.710;2023-05-18T15:49:02;19.60;34.20
10123;DHT22;5101;49.038;8.710;2023-05-18T15:51:28;19.50;34.00
10123;DHT22;5101;49.038;8.710;2023-05-18T15:53:54;19.40;34.10
10123;DHT22;5101;49.038;8.710;2023-05-18T15:56:19;19.40;34.20
10123;DHT22;5101;49.038;8.710;2023-05-18T15:58:46;19.40;34.20
10123;DHT22;5101;49.038;8.710;2023-05-18T16:01:11;19.40;34.40
10123;DHT22;5101;49.038;8.710;2023-05-18T16:03:37;19.50;34.70
10123;DHT22;5101;49.038;8.710;2023-05-18T16:06:02;19.40;34.40